sensor_id;sensor_type;location;lat;lon;timestamp;temperature;humidity
1766;DHT22;880;52.452;8.656;2024-03-08T00:00:12;3.10;99.90
1766;DHT22;880;52.452;8.656;2024-03-08T00:02:42;3.10;99.90
1766;DHT22;880;52.452;8.656;2024-03-08T00:05:09;3.10;99.90
1766;DHT22;880;52.452;8.656;2024-03-08T00:07:37;3.00;99.90
1766;DHT22;880;52.452;8.656;2024-03-08T00:10:06;2.90;99.90
1766;DHT22;880;52.452;8.656;2024-03-08T00:12:39;2.90;99.90
1766;DHT22;880;52.452;8.656;2024-03-08T00:15:15;2.80;99.90
1766;DHT22;880;52.452;8.656;2024-03-08T00:17:46;2.80;99.90
1766;DHT22;880;52.452;8.656;2024-03-08T00:20:15;2.80;99.90
1766;DHT22;880;52.452;8.656;2024-03-08T00:22:45;2.80;99.90
1766;DHT22;880;52.452;8.656;2024-03-08T00:25:12;2.80;99.90
1766;DHT22;880;52.452;8.656;2024-03-08T00:27:40;2.80;99.90
1766;DHT22;880;52.452;8.656;2024-03-08T00:30:08;2.80;99.90
1766;DHT22;880;52.452;8.656;2024-03-08T00:32:35;2.80;99.90
1766;DHT22;880;52.452;8.656;2024-03-08T00:35:04;2.70;99.90
1766;DHT22;880;52.452;8.656;2024-03-08T00:37:34;2.70;99.90
1766;DHT22;880;52.452;8.656;2024-03-08T00:40:02;2.70;99.90
1766;DHT22;880;52.452;8.656;2024-03-08T00:42:29;2.60;99.90
1766;DHT22;880;52.452;8.656;2024-03-08T00:44:56;2.60;99.90
1766;DHT22;880;52.452;8.656;2024-03-08T00:47:25;2.60;99.90
1766;DHT22;880;52.452;8.656;2024-03-08T00:49:52;2.50;99.90
1766;DHT22;880;52.452;8.656;2024-03-08T00:52:19;2.40;99.90
1766;DHT22;880;52.452;8.656;2024-03-08T00:54:46;2.40;99.90
1766;DHT22;880;52.452;8.656;2024-03-08T00:57:13;2.50;99.90
1766;DHT22;880;52.452;8.656;2024-03-08T00:59:41;2.50;99.90
1766;DHT22;880;52.452;8.656;2024-03-08T01:02:08;2.40;99.90
1766;DHT22;880;52.452;8.656;2024-03-08T01:04:38;2.50;99.90
1766;DHT22;880;52.452;8.656;2024-03-08T01:07:05;2.50;99.90
1766;DHT22;880;52.452;8.656;2024-03-08T01:09:32;2.40;99.90
1766;DHT22;880;52.452;8.656;2024-03-08T01:11:59;2.40;99.90
1766;DHT22;880;52.452;8.656;2024-03-08T01:14:26;2.40;99.90
1766;DHT22;880;52.452;8.656;2024-03-08T01:16:53;2.30;99.90
1766;DHT22;880;52.452;8.656;2024-03-08T01:19:21;2.30;99.90
1766;DHT22;880;52.452;8.656;2024-03-08T01:21:48;2.20;99.90
1766;DHT22;880;52.452;8.656;2024-03-08T01:24:15;2.20;99.90
1766;DHT22;880;52.452;8.656;2024-03-08T01:26:42;2.20;99.90
1766;DHT22;880;52.452;8.656;2024-03-08T01:29:10;2.10;99.90
1766;DHT22;880;52.452;8.656;2024-03-08T01:31:36;2.10;99.90
1766;DHT22;880;52.452;8.656;2024-03-08T01:34:04;2.00;99.90
1766;DHT22;880;52.452;8.656;2024-03-08T01:36:31;2.10;99.90
1766;DHT22;880;52.452;8.656;2024-03-08T01:38:58;2.10;99.90
1766;DHT22;880;52.452;8.656;2024-03-08T01:41:25;2.00;99.90
1766;DHT22;880;52.452;8.656;2024-03-08T01:43:56;2.10;99.90
1766;DHT22;880;52.452;8.656;2024-03-08T01:46:23;2.00;99.90
1766;DHT22;880;52.452;8.656;2024-03-08T01:48:51;2.00;99.90
1766;DHT22;880;52.452;8.656;2024-03-08T01:51:18;2.00;99.90
1766;DHT22;880;52.452;8.656;2024-03-08T01:53:47;2.00;99.90
1766;DHT22;880;52.452;8.656;2024-03-08T01:56:15;2.00;99.90
1766;DHT22;880;52.452;8.656;2024-03-08T01:58:42;2.00;99.90
1766;DHT22;880;52.452;8.656;2024-03-08T02:01:12;2.00;99.90
1766;DHT22;880;52.452;8.656;2024-03-08T02:03:44;2.00;99.90
1766;DHT22;880;52.452;8.656;2024-03-08T02:06:12;2.00;99.90
1766;DHT22;880;52.452;8.656;2024-03-08T02:08:45;1.90;99.90
1766;DHT22;880;52.452;8.656;2024-03-08T02:11:13;1.90;99.90
1766;DHT22;880;52.452;8.656;2024-03-08T02:13:41;1.90;99.90
1766;DHT22;880;52.452;8.656;2024-03-08T02:16:08;1.90;99.90
1766;DHT22;880;52.452;8.656;2024-03-08T02:18:36;1.90;99.90
1766;DHT22;880;52.452;8.656;2024-03-08T02:21:06;1.90;99.90
1766;DHT22;880;52.452;8.656;2024-03-08T02:23:35;1.90;99.90
1766;DHT22;880;52.452;8.656;2024-03-08T02:26:02;1.90;99.90
1766;DHT22;880;52.452;8.656;2024-03-08T02:28:31;1.80;99.90
1766;DHT22;880;52.452;8.656;2024-03-08T02:30:58;1.80;99.90
1766;DHT22;880;52.452;8.656;2024-03-08T02:33:26;1.80;99.90
1766;DHT22;880;52.452;8.656;2024-03-08T02:35:55;1.80;99.90
1766;DHT22;880;52.452;8.656;2024-03-08T02:38:24;1.80;99.90
1766;DHT22;880;52.452;8.656;2024-03-08T02:40:53;1.80;99.90
1766;DHT22;880;52.452;8.656;2024-03-08T02:43:21;1.80;99.90
1766;DHT22;880;52.452;8.656;2024-03-08T02:45:49;1.80;99.90
1766;DHT22;880;52.452;8.656;2024-03-08T02:48:17;1.80;99.90
1766;DHT22;880;52.452;8.656;2024-03-08T02:50:44;1.80;99.90
1766;DHT22;880;52.452;8.656;2024-03-08T02:53:13;1.80;99.90
1766;DHT22;880;52.452;8.656;2024-03-08T02:55:41;1.80;99.90
1766;DHT22;880;52.452;8.656;2024-03-08T02:58:09;1.70;99.90
1766;DHT22;880;52.452;8.656;2024-03-08T03:00:38;1.70;99.90
1766;DHT22;880;52.452;8.656;2024-03-08T03:03:06;1.70;99.90
1766;DHT22;880;52.452;8.656;2024-03-08T03:05:34;1.70;99.90
1766;DHT22;880;52.452;8.656;2024-03-08T03:08:01;1.60;99.90
1766;DHT22;880;52.452;8.656;2024-03-08T03:10:30;1.60;99.90
1766;DHT22;880;52.452;8.656;2024-03-08T03:12:57;1.60;99.90
1766;DHT22;880;52.452;8.656;2024-03-08T03:15:24;1.50;99.90
1766;DHT22;880;52.452;8.656;2024-03-08T03:17:54;1.50;99.90
1766;DHT22;880;52.452;8.656;2024-03-08T03:20:22;1.50;99.90
1766;DHT22;880;52.452;8.656;2024-03-08T03:22:52;1.40;99.90
1766;DHT22;880;52.452;8.656;2024-03-08T03:25:20;1.40;99.90
1766;DHT22;880;52.452;8.656;2024-03-08T03:27:55;1.40;99.90
1766;DHT22;880;52.452;8.656;2024-03-08T03:30:24;1.30;99.90
1766;DHT22;880;52.452;8.656;2024-03-08T03:32:53;1.30;99.90
1766;DHT22;880;52.452;8.656;2024-03-08T03:35:28;1.30;99.90
1766;DHT22;880;52.452;8.656;2024-03-08T03:37:58;1.30;99.90
1766;DHT22;880;52.452;8.656;2024-03-08T03:40:32;1.20;99.90
1766;DHT22;880;52.452;8.656;2024-03-08T03:43:03;1.20;99.90
1766;DHT22;880;52.452;8.656;2024-03-08T03:45:30;1.20;99.90
1766;DHT22;880;52.452;8.656;2024-03-08T03:48:04;1.20;99.90
1766;DHT22;880;52.452;8.656;2024-03-08T03:50:34;1.10;99.90
1766;DHT22;880;52.452;8.656;2024-03-08T03:53:03;1.10;99.90
1766;DHT22;880;52.452;8.656;2024-03-08T03:55:31;1.00;99.90
1766;DHT22;880;52.452;8.656;2024-03-08T03:57:58;1.00;99.90
1766;DHT22;880;52.452;8.656;2024-03-08T04:00:27;1.00;99.90
1766;DHT22;880;52.452;8.656;2024-03-08T04:02:54;1.00;99.90
1766;DHT22;880;52.452;8.656;2024-03-08T04:05:26;1.00;99.90
1766;DHT22;880;52.452;8.656;2024-03-08T04:07:53;0.90;99.90
1766;DHT22;880;52.452;8.656;2024-03-08T04:10:20;0.90;99.90
1766;DHT22;880;52.452;8.656;2024-03-08T04:12:47;0.90;99.90
1766;DHT22;880;52.452;8.656;2024-03-08T04:15:14;0.90;99.90
1766;DHT22;880;52.452;8.656;2024-03-08T04:17:42;0.90;99.90
1766;DHT22;880;52.452;8.656;2024-03-08T04:20:09;0.90;99.90
1766;DHT22;880;52.452;8.656;2024-03-08T04:22:38;0.90;99.90
1766;DHT22;880;52.452;8.656;2024-03-08T04:25:06;0.80;99.90
1766;DHT22;880;52.452;8.656;2024-03-08T04:27:35;0.80;99.90
1766;DHT22;880;52.452;8.656;2024-03-08T04:30:03;0.80;99.90
1766;DHT22;880;52.452;8.656;2024-03-08T04:32:30;0.80;99.90
1766;DHT22;880;52.452;8.656;2024-03-08T04:34:59;0.80;99.90
1766;DHT22;880;52.452;8.656;2024-03-08T04:37:28;0.80;99.90
1766;DHT22;880;52.452;8.656;2024-03-08T04:39:58;0.70;99.90
1766;DHT22;880;52.452;8.656;2024-03-08T04:42:26;0.70;99.90
1766;DHT22;880;52.452;8.656;2024-03-08T04:44:55;0.70;99.90
1766;DHT22;880;52.452;8.656;2024-03-08T04:47:22;0.70;99.90
1766;DHT22;880;52.452;8.656;2024-03-08T04:49:49;0.70;99.90
1766;DHT22;880;52.452;8.656;2024-03-08T04:52:17;0.70;99.90
1766;DHT22;880;52.452;8.656;2024-03-08T04:54:44;0.70;99.90
1766;DHT22;880;52.452;8.656;2024-03-08T04:57:11;0.70;99.90
1766;DHT22;880;52.452;8.656;2024-03-08T04:59:38;0.70;99.90
1766;DHT22;880;52.452;8.656;2024-03-08T05:02:06;0.60;99.90
1766;DHT22;880;52.452;8.656;2024-03-08T05:04:34;0.70;99.90
1766;DHT22;880;52.452;8.656;2024-03-08T05:07:02;0.70;99.90
1766;DHT22;880;52.452;8.656;2024-03-08T05:09:29;0.60;99.90
1766;DHT22;880;52.452;8.656;2024-03-08T05:11:58;0.60;99.90
1766;DHT22;880;52.452;8.656;2024-03-08T05:14:26;0.60;99.90
1766;DHT22;880;52.452;8.656;2024-03-08T05:16:53;0.60;99.90
1766;DHT22;880;52.452;8.656;2024-03-08T05:19:20;0.60;99.90
1766;DHT22;880;52.452;8.656;2024-03-08T05:21:49;0.60;99.90
1766;DHT22;880;52.452;8.656;2024-03-08T05:24:17;0.50;99.90
1766;DHT22;880;52.452;8.656;2024-03-08T05:26:46;0.50;99.90
1766;DHT22;880;52.452;8.656;2024-03-08T05:29:14;0.50;99.90
1766;DHT22;880;52.452;8.656;2024-03-08T05:34:16;0.40;99.90
1766;DHT22;880;52.452;8.656;2024-03-08T05:36:43;0.40;99.90
1766;DHT22;880;52.452;8.656;2024-03-08T05:39:12;0.40;99.90
1766;DHT22;880;52.452;8.656;2024-03-08T05:41:40;0.40;99.90
1766;DHT22;880;52.452;8.656;2024-03-08T05:44:08;0.40;99.90
1766;DHT22;880;52.452;8.656;2024-03-08T05:46:35;0.40;99.90
1766;DHT22;880;52.452;8.656;2024-03-08T05:49:04;0.50;99.90
1766;DHT22;880;52.452;8.656;2024-03-08T05:51:33;0.50;99.90
1766;DHT22;880;52.452;8.656;2024-03-08T05:54:04;0.40;99.90
1766;DHT22;880;52.452;8.656;2024-03-08T05:56:37;0.40;99.90
1766;DHT22;880;52.452;8.656;2024-03-08T05:59:07;0.40;99.90
1766;DHT22;880;52.452;8.656;2024-03-08T06:01:34;0.40;99.90
1766;DHT22;880;52.452;8.656;2024-03-08T06:04:03;0.40;99.90
1766;DHT22;880;52.452;8.656;2024-03-08T06:06:31;0.50;99.90
1766;DHT22;880;52.452;8.656;2024-03-08T06:08:58;0.40;99.90
1766;DHT22;880;52.452;8.656;2024-03-08T06:11:35;0.40;99.90
1766;DHT22;880;52.452;8.656;2024-03-08T06:14:04;0.50;99.90
1766;DHT22;880;52.452;8.656;2024-03-08T06:16:32;0.40;99.90
1766;DHT22;880;52.452;8.656;2024-03-08T06:19:02;0.50;99.90
1766;DHT22;880;52.452;8.656;2024-03-08T06:21:30;0.50;99.90
1766;DHT22;880;52.452;8.656;2024-03-08T06:23:56;0.50;99.90
1766;DHT22;880;52.452;8.656;2024-03-08T06:26:25;0.50;99.90
1766;DHT22;880;52.452;8.656;2024-03-08T06:28:57;0.50;99.90
1766;DHT22;880;52.452;8.656;2024-03-08T06:31:24;0.60;99.90
1766;DHT22;880;52.452;8.656;2024-03-08T06:33:51;0.60;99.90
1766;DHT22;880;52.452;8.656;2024-03-08T06:36:22;0.60;99.90
1766;DHT22;880;52.452;8.656;2024-03-08T06:38:49;0.60;99.90
1766;DHT22;880;52.452;8.656;2024-03-08T06:41:17;0.70;99.90
1766;DHT22;880;52.452;8.656;2024-03-08T06:43:47;0.70;99.90
1766;DHT22;880;52.452;8.656;2024-03-08T06:46:18;0.80;99.90
1766;DHT22;880;52.452;8.656;2024-03-08T06:48:47;0.80;99.90
1766;DHT22;880;52.452;8.656;2024-03-08T06:51:16;0.90;99.90
1766;DHT22;880;52.452;8.656;2024-03-08T06:53:44;0.90;99.90
1766;DHT22;880;52.452;8.656;2024-03-08T06:56:11;0.90;99.90
1766;DHT22;880;52.452;8.656;2024-03-08T06:58:38;0.90;99.90
1766;DHT22;880;52.452;8.656;2024-03-08T07:01:05;0.90;99.90
1766;DHT22;880;52.452;8.656;2024-03-08T07:03:35;0.90;99.90
1766;DHT22;880;52.452;8.656;2024-03-08T07:06:02;1.00;99.90
1766;DHT22;880;52.452;8.656;2024-03-08T07:08:30;1.00;99.90
1766;DHT22;880;52.452;8.656;2024-03-08T07:10:57;1.10;99.90
1766;DHT22;880;52.452;8.656;2024-03-08T07:13:25;1.10;99.90
1766;DHT22;880;52.452;8.656;2024-03-08T07:15:55;1.20;99.90
1766;DHT22;880;52.452;8.656;2024-03-08T07:18:22;1.20;99.90
1766;DHT22;880;52.452;8.656;2024-03-08T07:20:50;1.30;99.90
1766;DHT22;880;52.452;8.656;2024-03-08T07:23:17;1.30;99.90
1766;DHT22;880;52.452;8.656;2024-03-08T07:26:03;1.30;99.90
1766;DHT22;880;52.452;8.656;2024-03-08T07:28:29;1.40;99.90
1766;DHT22;880;52.452;8.656;2024-03-08T07:31:00;1.50;99.90
1766;DHT22;880;52.452;8.656;2024-03-08T07:33:48;1.60;99.90
1766;DHT22;880;52.452;8.656;2024-03-08T07:36:17;1.70;99.90
1766;DHT22;880;52.452;8.656;2024-03-08T07:38:44;1.70;99.90
1766;DHT22;880;52.452;8.656;2024-03-08T07:41:15;1.70;99.90
1766;DHT22;880;52.452;8.656;2024-03-08T07:43:42;1.70;99.90
1766;DHT22;880;52.452;8.656;2024-03-08T07:46:10;1.80;99.90
1766;DHT22;880;52.452;8.656;2024-03-08T07:48:37;1.80;99.90
1766;DHT22;880;52.452;8.656;2024-03-08T07:51:04;1.90;99.90
1766;DHT22;880;52.452;8.656;2024-03-08T07:53:32;2.00;99.90
1766;DHT22;880;52.452;8.656;2024-03-08T07:55:59;2.10;99.90
1766;DHT22;880;52.452;8.656;2024-03-08T07:58:26;2.20;99.90
1766;DHT22;880;52.452;8.656;2024-03-08T08:00:55;2.30;99.90
1766;DHT22;880;52.452;8.656;2024-03-08T08:03:22;2.40;99.90
1766;DHT22;880;52.452;8.656;2024-03-08T08:05:48;2.50;99.90
1766;DHT22;880;52.452;8.656;2024-03-08T08:08:16;2.60;99.90
1766;DHT22;880;52.452;8.656;2024-03-08T08:10:43;2.60;99.90
1766;DHT22;880;52.452;8.656;2024-03-08T08:13:10;2.70;99.90
1766;DHT22;880;52.452;8.656;2024-03-08T08:15:37;2.80;99.90
1766;DHT22;880;52.452;8.656;2024-03-08T08:18:05;3.00;99.90
1766;DHT22;880;52.452;8.656;2024-03-08T08:20:33;3.00;99.90
1766;DHT22;880;52.452;8.656;2024-03-08T08:23:00;3.10;99.90
1766;DHT22;880;52.452;8.656;2024-03-08T08:25:27;3.10;99.90
1766;DHT22;880;52.452;8.656;2024-03-08T08:27:54;3.20;99.90
1766;DHT22;880;52.452;8.656;2024-03-08T08:30:21;3.30;99.90
1766;DHT22;880;52.452;8.656;2024-03-08T08:32:48;3.40;99.90
1766;DHT22;880;52.452;8.656;2024-03-08T08:35:16;3.40;99.90
1766;DHT22;880;52.452;8.656;2024-03-08T08:37:45;3.50;99.90
1766;DHT22;880;52.452;8.656;2024-03-08T08:40:12;3.60;99.90
1766;DHT22;880;52.452;8.656;2024-03-08T08:42:42;3.70;99.90
1766;DHT22;880;52.452;8.656;2024-03-08T08:45:10;3.80;99.90
1766;DHT22;880;52.452;8.656;2024-03-08T08:47:44;4.00;99.90
1766;DHT22;880;52.452;8.656;2024-03-08T08:50:12;4.20;99.90
1766;DHT22;880;52.452;8.656;2024-03-08T08:52:40;4.30;99.90
1766;DHT22;880;52.452;8.656;2024-03-08T08:55:10;4.40;99.90
1766;DHT22;880;52.452;8.656;2024-03-08T08:57:41;4.40;99.90
1766;DHT22;880;52.452;8.656;2024-03-08T09:00:09;4.50;99.90
1766;DHT22;880;52.452;8.656;2024-03-08T09:02:41;4.60;99.90
1766;DHT22;880;52.452;8.656;2024-03-08T09:05:09;4.80;99.90
1766;DHT22;880;52.452;8.656;2024-03-08T09:07:36;4.80;99.90
1766;DHT22;880;52.452;8.656;2024-03-08T09:10:04;4.90;99.90
1766;DHT22;880;52.452;8.656;2024-03-08T09:12:34;5.00;99.90
1766;DHT22;880;52.452;8.656;2024-03-08T09:15:01;4.90;99.90
1766;DHT22;880;52.452;8.656;2024-03-08T09:17:28;4.80;99.90
1766;DHT22;880;52.452;8.656;2024-03-08T09:19:56;4.80;99.90
1766;DHT22;880;52.452;8.656;2024-03-08T09:22:24;4.80;99.90
1766;DHT22;880;52.452;8.656;2024-03-08T09:24:51;4.80;99.90
1766;DHT22;880;52.452;8.656;2024-03-08T09:27:18;5.00;99.90
1766;DHT22;880;52.452;8.656;2024-03-08T09:29:46;5.30;99.90
1766;DHT22;880;52.452;8.656;2024-03-08T09:32:13;5.50;99.90
1766;DHT22;880;52.452;8.656;2024-03-08T09:34:40;5.60;99.90
1766;DHT22;880;52.452;8.656;2024-03-08T09:37:07;5.70;99.90
1766;DHT22;880;52.452;8.656;2024-03-08T09:39:35;5.80;99.90
1766;DHT22;880;52.452;8.656;2024-03-08T09:42:03;5.80;99.90
1766;DHT22;880;52.452;8.656;2024-03-08T09:44:30;5.80;99.90
1766;DHT22;880;52.452;8.656;2024-03-08T09:47:00;5.90;99.90
1766;DHT22;880;52.452;8.656;2024-03-08T09:49:29;6.10;99.90
1766;DHT22;880;52.452;8.656;2024-03-08T09:51:56;6.40;99.90
1766;DHT22;880;52.452;8.656;2024-03-08T09:54:25;6.40;99.90
1766;DHT22;880;52.452;8.656;2024-03-08T09:56:53;6.50;99.90
1766;DHT22;880;52.452;8.656;2024-03-08T09:59:20;6.40;99.90
1766;DHT22;880;52.452;8.656;2024-03-08T10:01:50;6.50;99.90
1766;DHT22;880;52.452;8.656;2024-03-08T10:04:18;6.50;99.90
1766;DHT22;880;52.452;8.656;2024-03-08T10:06:46;6.60;99.90
1766;DHT22;880;52.452;8.656;2024-03-08T10:09:14;6.60;99.90
1766;DHT22;880;52.452;8.656;2024-03-08T10:11:42;6.60;99.90
1766;DHT22;880;52.452;8.656;2024-03-08T10:14:09;6.80;99.90
1766;DHT22;880;52.452;8.656;2024-03-08T10:16:40;6.80;99.90
1766;DHT22;880;52.452;8.656;2024-03-08T10:19:07;7.00;99.90
1766;DHT22;880;52.452;8.656;2024-03-08T10:21:36;7.40;99.90
1766;DHT22;880;52.452;8.656;2024-03-08T10:24:14;7.60;99.90
1766;DHT22;880;52.452;8.656;2024-03-08T10:26:41;7.70;99.90
1766;DHT22;880;52.452;8.656;2024-03-08T10:29:10;7.70;99.90
1766;DHT22;880;52.452;8.656;2024-03-08T10:31:45;7.90;99.90
1766;DHT22;880;52.452;8.656;2024-03-08T10:34:12;8.00;99.90
1766;DHT22;880;52.452;8.656;2024-03-08T10:36:40;7.80;99.90
1766;DHT22;880;52.452;8.656;2024-03-08T10:39:22;7.90;99.90
1766;DHT22;880;52.452;8.656;2024-03-08T10:42:02;7.90;99.90
1766;DHT22;880;52.452;8.656;2024-03-08T10:47:22;8.00;99.90
1766;DHT22;880;52.452;8.656;2024-03-08T10:50:11;8.30;99.90
1766;DHT22;880;52.452;8.656;2024-03-08T10:52:43;8.50;99.90
1766;DHT22;880;52.452;8.656;2024-03-08T10:55:12;8.60;99.90
1766;DHT22;880;52.452;8.656;2024-03-08T10:57:40;8.60;99.90
1766;DHT22;880;52.452;8.656;2024-03-08T11:00:09;8.70;99.90
1766;DHT22;880;52.452;8.656;2024-03-08T11:02:38;8.60;99.90
1766;DHT22;880;52.452;8.656;2024-03-08T11:05:10;8.70;99.90
1766;DHT22;880;52.452;8.656;2024-03-08T11:07:42;8.70;99.90
1766;DHT22;880;52.452;8.656;2024-03-08T11:10:19;8.80;99.90
1766;DHT22;880;52.452;8.656;2024-03-08T11:12:46;8.70;99.90
1766;DHT22;880;52.452;8.656;2024-03-08T11:15:15;8.70;99.90
1766;DHT22;880;52.452;8.656;2024-03-08T11:17:47;8.70;99.90
1766;DHT22;880;52.452;8.656;2024-03-08T11:20:17;8.80;99.90
1766;DHT22;880;52.452;8.656;2024-03-08T11:25:36;8.90;99.90
1766;DHT22;880;52.452;8.656;2024-03-08T11:33:30;9.30;99.90
1766;DHT22;880;52.452;8.656;2024-03-08T11:36:22;9.40;99.90
1766;DHT22;880;52.452;8.656;2024-03-08T11:38:52;9.50;99.90
1766;DHT22;880;52.452;8.656;2024-03-08T11:41:22;9.40;99.90
1766;DHT22;880;52.452;8.656;2024-03-08T11:44:02;9.40;99.90
1766;DHT22;880;52.452;8.656;2024-03-08T11:46:33;9.40;99.90
1766;DHT22;880;52.452;8.656;2024-03-08T11:49:00;9.50;99.90
1766;DHT22;880;52.452;8.656;2024-03-08T11:51:28;9.70;99.90
1766;DHT22;880;52.452;8.656;2024-03-08T11:53:56;9.80;99.90
1766;DHT22;880;52.452;8.656;2024-03-08T11:56:23;10.10;99.90
1766;DHT22;880;52.452;8.656;2024-03-08T11:58:55;10.10;99.90
1766;DHT22;880;52.452;8.656;2024-03-08T12:01:26;9.80;99.90
1766;DHT22;880;52.452;8.656;2024-03-08T12:03:54;9.60;99.90
1766;DHT22;880;52.452;8.656;2024-03-08T12:06:37;9.60;99.90
1766;DHT22;880;52.452;8.656;2024-03-08T12:09:09;9.70;99.90
1766;DHT22;880;52.452;8.656;2024-03-08T12:11:37;9.80;99.90
1766;DHT22;880;52.452;8.656;2024-03-08T12:14:04;9.90;99.90
1766;DHT22;880;52.452;8.656;2024-03-08T12:16:33;9.90;99.90
1766;DHT22;880;52.452;8.656;2024-03-08T12:19:00;10.00;99.90
1766;DHT22;880;52.452;8.656;2024-03-08T12:21:30;10.00;99.90
1766;DHT22;880;52.452;8.656;2024-03-08T12:24:07;10.10;99.90
1766;DHT22;880;52.452;8.656;2024-03-08T12:26:36;10.10;99.90
1766;DHT22;880;52.452;8.656;2024-03-08T12:29:20;10.00;99.90
1766;DHT22;880;52.452;8.656;2024-03-08T12:31:53;10.10;99.90
1766;DHT22;880;52.452;8.656;2024-03-08T12:34:21;10.00;99.90
1766;DHT22;880;52.452;8.656;2024-03-08T12:36:49;9.80;99.90
1766;DHT22;880;52.452;8.656;2024-03-08T12:39:21;9.70;99.90
1766;DHT22;880;52.452;8.656;2024-03-08T12:41:49;9.90;99.90
1766;DHT22;880;52.452;8.656;2024-03-08T12:44:20;10.00;99.90
1766;DHT22;880;52.452;8.656;2024-03-08T12:46:48;10.00;99.90
1766;DHT22;880;52.452;8.656;2024-03-08T12:49:19;10.10;99.90
1766;DHT22;880;52.452;8.656;2024-03-08T12:51:49;10.20;99.90
1766;DHT22;880;52.452;8.656;2024-03-08T12:54:16;10.40;99.90
1766;DHT22;880;52.452;8.656;2024-03-08T12:56:43;10.40;99.90
1766;DHT22;880;52.452;8.656;2024-03-08T12:59:10;10.30;99.90
1766;DHT22;880;52.452;8.656;2024-03-08T13:01:38;10.30;99.90
1766;DHT22;880;52.452;8.656;2024-03-08T13:04:06;10.40;99.90
1766;DHT22;880;52.452;8.656;2024-03-08T13:06:35;10.40;99.90
1766;DHT22;880;52.452;8.656;2024-03-08T13:09:02;10.50;99.90
1766;DHT22;880;52.452;8.656;2024-03-08T13:11:32;10.60;99.90
1766;DHT22;880;52.452;8.656;2024-03-08T13:14:04;10.50;99.90
1766;DHT22;880;52.452;8.656;2024-03-08T13:16:34;10.60;99.90
1766;DHT22;880;52.452;8.656;2024-03-08T13:19:02;10.80;99.90
1766;DHT22;880;52.452;8.656;2024-03-08T13:21:29;10.80;99.90
1766;DHT22;880;52.452;8.656;2024-03-08T13:23:56;10.90;99.90
1766;DHT22;880;52.452;8.656;2024-03-08T13:26:25;11.00;99.90
1766;DHT22;880;52.452;8.656;2024-03-08T13:28:59;11.00;99.90
1766;DHT22;880;52.452;8.656;2024-03-08T13:31:26;11.20;99.90
1766;DHT22;880;52.452;8.656;2024-03-08T13:33:54;11.20;99.90
1766;DHT22;880;52.452;8.656;2024-03-08T13:36:25;10.90;99.90
1766;DHT22;880;52.452;8.656;2024-03-08T13:38:56;10.80;99.90
1766;DHT22;880;52.452;8.656;2024-03-08T13:41:26;10.80;99.90
1766;DHT22;880;52.452;8.656;2024-03-08T13:43:56;10.80;99.90
1766;DHT22;880;52.452;8.656;2024-03-08T13:46:24;10.90;99.90
1766;DHT22;880;52.452;8.656;2024-03-08T13:48:52;10.80;99.90
1766;DHT22;880;52.452;8.656;2024-03-08T13:51:28;10.80;99.90
1766;DHT22;880;52.452;8.656;2024-03-08T13:53:55;10.80;99.90
1766;DHT22;880;52.452;8.656;2024-03-08T13:56:21;10.90;99.90
1766;DHT22;880;52.452;8.656;2024-03-08T13:58:48;11.00;99.90
1766;DHT22;880;52.452;8.656;2024-03-08T14:01:18;11.00;99.90
1766;DHT22;880;52.452;8.656;2024-03-08T14:03:47;10.90;99.90
1766;DHT22;880;52.452;8.656;2024-03-08T14:06:14;10.90;99.90
1766;DHT22;880;52.452;8.656;2024-03-08T14:08:49;10.80;99.90
1766;DHT22;880;52.452;8.656;2024-03-08T14:11:16;10.70;99.90
1766;DHT22;880;52.452;8.656;2024-03-08T14:13:45;10.60;99.90
1766;DHT22;880;52.452;8.656;2024-03-08T14:16:13;10.50;99.90
1766;DHT22;880;52.452;8.656;2024-03-08T14:18:40;10.50;99.90
1766;DHT22;880;52.452;8.656;2024-03-08T14:21:08;10.30;99.90
1766;DHT22;880;52.452;8.656;2024-03-08T14:23:35;10.20;99.90
1766;DHT22;880;52.452;8.656;2024-03-08T14:26:03;10.10;99.90
1766;DHT22;880;52.452;8.656;2024-03-08T14:28:32;10.20;99.90
1766;DHT22;880;52.452;8.656;2024-03-08T14:30:59;10.10;99.90
1766;DHT22;880;52.452;8.656;2024-03-08T14:33:33;10.00;99.90
1766;DHT22;880;52.452;8.656;2024-03-08T14:36:00;10.00;99.90
1766;DHT22;880;52.452;8.656;2024-03-08T14:38:28;10.00;99.90
1766;DHT22;880;52.452;8.656;2024-03-08T14:40:55;10.00;99.90
1766;DHT22;880;52.452;8.656;2024-03-08T14:43:22;10.00;99.90
1766;DHT22;880;52.452;8.656;2024-03-08T14:45:51;9.90;99.90
1766;DHT22;880;52.452;8.656;2024-03-08T14:48:19;10.00;99.90
1766;DHT22;880;52.452;8.656;2024-03-08T14:50:46;10.00;99.90
1766;DHT22;880;52.452;8.656;2024-03-08T14:53:14;10.00;99.90
1766;DHT22;880;52.452;8.656;2024-03-08T14:55:43;10.00;99.90
1766;DHT22;880;52.452;8.656;2024-03-08T14:58:13;10.00;99.90
1766;DHT22;880;52.452;8.656;2024-03-08T15:00:41;9.90;99.90
1766;DHT22;880;52.452;8.656;2024-03-08T15:03:10;9.90;99.90
1766;DHT22;880;52.452;8.656;2024-03-08T15:05:40;9.90;99.90
1766;DHT22;880;52.452;8.656;2024-03-08T15:08:14;9.90;99.90
1766;DHT22;880;52.452;8.656;2024-03-08T15:10:47;9.90;99.90
1766;DHT22;880;52.452;8.656;2024-03-08T15:13:18;9.80;99.90
1766;DHT22;880;52.452;8.656;2024-03-08T15:15:50;9.80;99.90
1766;DHT22;880;52.452;8.656;2024-03-08T15:18:25;9.80;99.90
1766;DHT22;880;52.452;8.656;2024-03-08T15:20:53;9.80;99.90
1766;DHT22;880;52.452;8.656;2024-03-08T15:23:20;9.80;99.90
1766;DHT22;880;52.452;8.656;2024-03-08T15:25:48;9.80;99.90
1766;DHT22;880;52.452;8.656;2024-03-08T15:28:18;9.90;99.90
1766;DHT22;880;52.452;8.656;2024-03-08T15:30:47;9.90;99.90
1766;DHT22;880;52.452;8.656;2024-03-08T15:33:20;9.90;99.90
1766;DHT22;880;52.452;8.656;2024-03-08T15:35:52;9.70;99.90
1766;DHT22;880;52.452;8.656;2024-03-08T15:38:26;9.70;99.90
1766;DHT22;880;52.452;8.656;2024-03-08T15:40:56;9.80;99.90
1766;DHT22;880;52.452;8.656;2024-03-08T15:43:23;9.80;99.90
1766;DHT22;880;52.452;8.656;2024-03-08T15:45:52;9.70;99.90
1766;DHT22;880;52.452;8.656;2024-03-08T15:48:19;9.70;99.90
1766;DHT22;880;52.452;8.656;2024-03-08T15:50:46;9.70;99.90
1766;DHT22;880;52.452;8.656;2024-03-08T15:53:13;9.60;99.90
1766;DHT22;880;52.452;8.656;2024-03-08T15:55:41;9.60;99.90
1766;DHT22;880;52.452;8.656;2024-03-08T15:58:10;9.60;99.90
1766;DHT22;880;52.452;8.656;2024-03-08T16:00:40;9.40;99.90
1766;DHT22;880;52.452;8.656;2024-03-08T16:03:14;9.30;99.90
1766;DHT22;880;52.452;8.656;2024-03-08T16:05:42;9.30;99.90
1766;DHT22;880;52.452;8.656;2024-03-08T16:08:16;9.20;99.90
1766;DHT22;880;52.452;8.656;2024-03-08T16:10:45;9.20;99.90
1766;DHT22;880;52.452;8.656;2024-03-08T16:13:24;9.20;99.90
1766;DHT22;880;52.452;8.656;2024-03-08T16:15:53;9.20;99.90
1766;DHT22;880;52.452;8.656;2024-03-08T16:18:21;9.10;99.90
1766;DHT22;880;52.452;8.656;2024-03-08T16:20:50;8.90;99.90
1766;DHT22;880;52.452;8.656;2024-03-08T16:23:18;8.80;99.90
1766;DHT22;880;52.452;8.656;2024-03-08T16:25:46;8.80;99.90
1766;DHT22;880;52.452;8.656;2024-03-08T16:28:14;8.70;99.90
1766;DHT22;880;52.452;8.656;2024-03-08T16:30:43;8.70;99.90
1766;DHT22;880;52.452;8.656;2024-03-08T16:33:17;8.70;99.90
1766;DHT22;880;52.452;8.656;2024-03-08T16:35:45;8.60;99.90
1766;DHT22;880;52.452;8.656;2024-03-08T16:38:13;8.60;99.90
1766;DHT22;880;52.452;8.656;2024-03-08T16:40:46;8.50;99.90
1766;DHT22;880;52.452;8.656;2024-03-08T16:43:18;8.40;99.90
1766;DHT22;880;52.452;8.656;2024-03-08T16:45:48;8.40;99.90
1766;DHT22;880;52.452;8.656;2024-03-08T16:48:19;8.30;99.90
1766;DHT22;880;52.452;8.656;2024-03-08T16:50:50;8.30;99.90
1766;DHT22;880;52.452;8.656;2024-03-08T16:53:17;8.20;99.90
1766;DHT22;880;52.452;8.656;2024-03-08T16:55:45;8.20;99.90